sensor_id;sensor_type;location;lat;lon;timestamp;temperature;humidity
13802;DHT22;6972;51.518;6.918;2023-01-29T00:14:12;-0.90;99.90
13802;DHT22;6972;51.518;6.918;2023-01-29T00:16:38;-0.60;99.90
13802;DHT22;6972;51.518;6.918;2023-01-29T00:21:30;-0.80;99.90
13802;DHT22;6972;51.518;6.918;2023-01-29T00:28:49;-0.80;99.90
13802;DHT22;6972;51.518;6.918;2023-01-29T00:31:17;-0.90;99.90
13802;DHT22;6972;51.518;6.918;2023-01-29T00:33:44;-0.90;99.90
13802;DHT22;6972;51.518;6.918;2023-01-29T00:36:12;-0.90;99.90
13802;DHT22;6972;51.518;6.918;2023-01-29T00:41:07;0.70;99.90
13802;DHT22;6972;51.518;6.918;2023-01-29T00:46:36;-0.80;99.90
13802;DHT22;6972;51.518;6.918;2023-01-29T00:49:02;-0.80;99.90
13802;DHT22;6972;51.518;6.918;2023-01-29T00:51:29;-0.90;99.90
13802;DHT22;6972;51.518;6.918;2023-01-29T00:56:26;-0.80;99.90
13802;DHT22;6972;51.518;6.918;2023-01-29T01:04:09;-0.90;99.90
13802;DHT22;6972;51.518;6.918;2023-01-29T01:06:39;-0.90;99.90
13802;DHT22;6972;51.518;6.918;2023-01-29T01:09:06;-0.90;99.90
13802;DHT22;6972;51.518;6.918;2023-01-29T01:11:50;-0.90;99.90
13802;DHT22;6972;51.518;6.918;2023-01-29T01:14:19;-0.90;99.90
13802;DHT22;6972;51.518;6.918;2023-01-29T01:16:45;-0.90;99.90
13802;DHT22;6972;51.518;6.918;2023-01-29T01:26:33;-1.00;99.90
13802;DHT22;6972;51.518;6.918;2023-01-29T01:28:59;-1.10;99.90
13802;DHT22;6972;51.518;6.918;2023-01-29T01:33:54;-1.10;99.90
13802;DHT22;6972;51.518;6.918;2023-01-29T01:41:13;-1.20;99.90
13802;DHT22;6972;51.518;6.918;2023-01-29T01:46:15;-1.20;99.90
13802;DHT22;6972;51.518;6.918;2023-01-29T01:48:43;-1.20;99.90
13802;DHT22;6972;51.518;6.918;2023-01-29T01:51:09;-1.20;99.90
13802;DHT22;6972;51.518;6.918;2023-01-29T01:53:40;-1.20;99.90
13802;DHT22;6972;51.518;6.918;2023-01-29T01:56:22;-1.20;99.90
13802;DHT22;6972;51.518;6.918;2023-01-29T01:58:54;-1.10;99.90
13802;DHT22;6972;51.518;6.918;2023-01-29T02:01:22;-1.20;99.90
13802;DHT22;6972;51.518;6.918;2023-01-29T02:04:06;-1.20;99.90
13802;DHT22;6972;51.518;6.918;2023-01-29T02:06:52;-1.10;99.90
13802;DHT22;6972;51.518;6.918;2023-01-29T02:09:57;-1.10;99.90
13802;DHT22;6972;51.518;6.918;2023-01-29T02:12:24;-1.00;99.90
13802;DHT22;6972;51.518;6.918;2023-01-29T02:14:51;-1.10;99.90
13802;DHT22;6972;51.518;6.918;2023-01-29T02:17:18;-1.10;99.90
13802;DHT22;6972;51.518;6.918;2023-01-29T02:28:25;-1.10;99.90
13802;DHT22;6972;51.518;6.918;2023-01-29T02:33:42;-1.00;99.90
13802;DHT22;6972;51.518;6.918;2023-01-29T02:46:50;-1.20;99.90
13802;DHT22;6972;51.518;6.918;2023-01-29T02:49:24;-1.30;99.90
13802;DHT22;6972;51.518;6.918;2023-01-29T02:54:49;-1.30;99.90
13802;DHT22;6972;51.518;6.918;2023-01-29T02:57:19;-1.30;99.90
13802;DHT22;6972;51.518;6.918;2023-01-29T03:03:06;-1.30;99.90
13802;DHT22;6972;51.518;6.918;2023-01-29T03:06:01;-1.30;99.90
13802;DHT22;6972;51.518;6.918;2023-01-29T03:11:05;-1.30;99.90
13802;DHT22;6972;51.518;6.918;2023-01-29T03:13:34;-1.40;99.90
13802;DHT22;6972;51.518;6.918;2023-01-29T03:18:59;-1.40;99.90
13802;DHT22;6972;51.518;6.918;2023-01-29T03:21:32;-1.40;99.90
13802;DHT22;6972;51.518;6.918;2023-01-29T03:24:17;-1.40;99.90
13802;DHT22;6972;51.518;6.918;2023-01-29T03:27:07;-1.40;99.90
13802;DHT22;6972;51.518;6.918;2023-01-29T03:29:54;-1.40;99.90
13802;DHT22;6972;51.518;6.918;2023-01-29T03:32:41;-1.40;99.90
13802;DHT22;6972;51.518;6.918;2023-01-29T03:35:09;-1.40;99.90
13802;DHT22;6972;51.518;6.918;2023-01-29T03:37:44;-1.40;99.90
13802;DHT22;6972;51.518;6.918;2023-01-29T03:40:11;-1.30;99.90
13802;DHT22;6972;51.518;6.918;2023-01-29T03:42:56;-1.30;99.90
13802;DHT22;6972;51.518;6.918;2023-01-29T03:50:53;-1.40;99.90
13802;DHT22;6972;51.518;6.918;2023-01-29T03:56:02;-1.30;99.90
13802;DHT22;6972;51.518;6.918;2023-01-29T03:58:39;-1.20;99.90
13802;DHT22;6972;51.518;6.918;2023-01-29T04:01:30;-1.20;99.90
13802;DHT22;6972;51.518;6.918;2023-01-29T04:04:26;-1.10;99.90
13802;DHT22;6972;51.518;6.918;2023-01-29T04:06:56;-1.10;99.90
13802;DHT22;6972;51.518;6.918;2023-01-29T04:09:39;-1.00;99.90
13802;DHT22;6972;51.518;6.918;2023-01-29T04:12:09;-1.00;99.90
13802;DHT22;6972;51.518;6.918;2023-01-29T04:14:36;-1.00;99.90
13802;DHT22;6972;51.518;6.918;2023-01-29T04:17:16;-1.00;99.90
13802;DHT22;6972;51.518;6.918;2023-01-29T04:27:26;-0.90;99.90
13802;DHT22;6972;51.518;6.918;2023-01-29T04:38:11;-0.90;99.90
13802;DHT22;6972;51.518;6.918;2023-01-29T04:43:27;-0.90;99.90
13802;DHT22;6972;51.518;6.918;2023-01-29T04:46:14;-0.90;99.90
13802;DHT22;6972;51.518;6.918;2023-01-29T04:51:24;-0.80;99.90
13802;DHT22;6972;51.518;6.918;2023-01-29T04:54:11;-0.80;99.90
13802;DHT22;6972;51.518;6.918;2023-01-29T04:56:56;-0.90;99.90
13802;DHT22;6972;51.518;6.918;2023-01-29T04:59:36;-0.90;99.90
13802;DHT22;6972;51.518;6.918;2023-01-29T05:02:06;-1.00;99.90
13802;DHT22;6972;51.518;6.918;2023-01-29T05:04:34;-0.90;99.90
13802;DHT22;6972;51.518;6.918;2023-01-29T05:07:08;-0.90;99.90
13802;DHT22;6972;51.518;6.918;2023-01-29T05:09:35;-0.90;99.90
13802;DHT22;6972;51.518;6.918;2023-01-29T05:12:02;-0.90;99.90
13802;DHT22;6972;51.518;6.918;2023-01-29T05:14:32;-0.80;99.90
13802;DHT22;6972;51.518;6.918;2023-01-29T05:17:02;-0.80;99.90
13802;DHT22;6972;51.518;6.918;2023-01-29T05:24:25;-0.80;99.90
13802;DHT22;6972;51.518;6.918;2023-01-29T05:26:52;-0.90;99.90
13802;DHT22;6972;51.518;6.918;2023-01-29T05:29:39;-0.90;99.90
13802;DHT22;6972;51.518;6.918;2023-01-29T05:32:05;-0.90;99.90
13802;DHT22;6972;51.518;6.918;2023-01-29T05:34:32;-0.90;99.90
13802;DHT22;6972;51.518;6.918;2023-01-29T05:36:58;-0.80;99.90
13802;DHT22;6972;51.518;6.918;2023-01-29T05:39:24;-0.80;99.90
13802;DHT22;6972;51.518;6.918;2023-01-29T05:41:50;-0.80;99.90
13802;DHT22;6972;51.518;6.918;2023-01-29T05:49:08;-1.00;99.90
13802;DHT22;6972;51.518;6.918;2023-01-29T05:54:00;-0.80;99.90
13802;DHT22;6972;51.518;6.918;2023-01-29T05:56:25;-0.60;99.90
13802;DHT22;6972;51.518;6.918;2023-01-29T05:58:51;-0.80;99.90
13802;DHT22;6972;51.518;6.918;2023-01-29T06:01:22;-0.80;99.90
13802;DHT22;6972;51.518;6.918;2023-01-29T06:03:48;-0.80;99.90
13802;DHT22;6972;51.518;6.918;2023-01-29T06:11:08;-0.80;99.90
13802;DHT22;6972;51.518;6.918;2023-01-29T06:35:28;-0.40;99.90
13802;DHT22;6972;51.518;6.918;2023-01-29T06:37:53;-0.60;99.90
13802;DHT22;6972;51.518;6.918;2023-01-29T06:40:20;-0.60;99.90
13802;DHT22;6972;51.518;6.918;2023-01-29T06:59:48;-0.60;99.90
13802;DHT22;6972;51.518;6.918;2023-01-29T07:07:07;-0.70;99.90
13802;DHT22;6972;51.518;6.918;2023-01-29T07:09:41;-0.70;99.90
13802;DHT22;6972;51.518;6.918;2023-01-29T07:12:10;-0.70;99.90
13802;DHT22;6972;51.518;6.918;2023-01-29T07:14:36;-0.30;99.90
13802;DHT22;6972;51.518;6.918;2023-01-29T07:17:03;-0.60;99.90
13802;DHT22;6972;51.518;6.918;2023-01-29T07:19:29;-0.60;99.90
13802;DHT22;6972;51.518;6.918;2023-01-29T07:21:54;-0.50;99.90
13802;DHT22;6972;51.518;6.918;2023-01-29T07:26:46;-0.40;99.90
13802;DHT22;6972;51.518;6.918;2023-01-29T07:51:06;-0.20;99.90
13802;DHT22;6972;51.518;6.918;2023-01-29T08:03:17;0.20;99.90
13802;DHT22;6972;51.518;6.918;2023-01-29T08:05:44;0.30;99.90
13802;DHT22;6972;51.518;6.918;2023-01-29T08:10:37;0.30;99.90
13802;DHT22;6972;51.518;6.918;2023-01-29T08:13:04;0.20;99.90
13802;DHT22;6972;51.518;6.918;2023-01-29T08:15:30;0.20;99.90
13802;DHT22;6972;51.518;6.918;2023-01-29T08:22:48;0.00;99.90
13802;DHT22;6972;51.518;6.918;2023-01-29T08:25:14;0.00;99.90
13802;DHT22;6972;51.518;6.918;2023-01-29T08:27:41;-0.10;99.90
13802;DHT22;6972;51.518;6.918;2023-01-29T08:30:08;0.00;99.90
13802;DHT22;6972;51.518;6.918;2023-01-29T08:35:00;0.10;99.90
13802;DHT22;6972;51.518;6.918;2023-01-29T08:47:09;0.10;99.90
13802;DHT22;6972;51.518;6.918;2023-01-29T08:56:53;0.10;99.90
13802;DHT22;6972;51.518;6.918;2023-01-29T09:01:44;0.10;99.90
13802;DHT22;6972;51.518;6.918;2023-01-29T09:16:23;0.30;99.90
13802;DHT22;6972;51.518;6.918;2023-01-29T09:18:48;0.30;99.90
13802;DHT22;6972;51.518;6.918;2023-01-29T09:23:40;0.50;99.90
13802;DHT22;6972;51.518;6.918;2023-01-29T09:26:06;0.40;99.90
13802;DHT22;6972;51.518;6.918;2023-01-29T09:31:02;0.50;99.90
13802;DHT22;6972;51.518;6.918;2023-01-29T09:38:21;0.40;99.90
13802;DHT22;6972;51.518;6.918;2023-01-29T09:44:08;0.40;99.90
13802;DHT22;6972;51.518;6.918;2023-01-29T09:46:17;0.50;99.90
13802;DHT22;6972;51.518;6.918;2023-01-29T09:48:44;0.50;99.90
13802;DHT22;6972;51.518;6.918;2023-01-29T09:51:19;0.60;99.90
13802;DHT22;6972;51.518;6.918;2023-01-29T09:53:57;0.60;99.90
13802;DHT22;6972;51.518;6.918;2023-01-29T09:56:23;0.70;99.90
13802;DHT22;6972;51.518;6.918;2023-01-29T09:58:56;0.70;99.90
13802;DHT22;6972;51.518;6.918;2023-01-29T10:01:29;0.70;99.90
13802;DHT22;6972;51.518;6.918;2023-01-29T10:10:27;0.90;99.90
13802;DHT22;6972;51.518;6.918;2023-01-29T10:12:57;0.90;99.90
13802;DHT22;6972;51.518;6.918;2023-01-29T10:21:31;0.90;99.90
13802;DHT22;6972;51.518;6.918;2023-01-29T10:26:26;1.00;99.90
13802;DHT22;6972;51.518;6.918;2023-01-29T10:28:54;1.00;99.90
13802;DHT22;6972;51.518;6.918;2023-01-29T10:31:29;1.10;99.90
13802;DHT22;6972;51.518;6.918;2023-01-29T10:34:03;0.80;99.90
13802;DHT22;6972;51.518;6.918;2023-01-29T10:36:35;1.10;99.90
13802;DHT22;6972;51.518;6.918;2023-01-29T10:52:48;1.20;99.90
13802;DHT22;6972;51.518;6.918;2023-01-29T11:00:41;1.30;99.90
13802;DHT22;6972;51.518;6.918;2023-01-29T11:06:01;1.30;99.90
13802;DHT22;6972;51.518;6.918;2023-01-29T11:11:11;1.30;99.90
13802;DHT22;6972;51.518;6.918;2023-01-29T11:13:45;1.40;99.90
13802;DHT22;6972;51.518;6.918;2023-01-29T11:16:13;1.30;99.90
13802;DHT22;6972;51.518;6.918;2023-01-29T11:18:59;1.40;99.90
13802;DHT22;6972;51.518;6.918;2023-01-29T11:21:26;1.50;99.90
13802;DHT22;6972;51.518;6.918;2023-01-29T11:24:24;1.50;99.90
13802;DHT22;6972;51.518;6.918;2023-01-29T11:26:52;1.60;99.90
13802;DHT22;6972;51.518;6.918;2023-01-29T11:29:38;1.50;99.90
13802;DHT22;6972;51.518;6.918;2023-01-29T11:32:24;1.50;99.90
13802;DHT22;6972;51.518;6.918;2023-01-29T11:39:48;1.80;99.90
13802;DHT22;6972;51.518;6.918;2023-01-29T11:42:20;1.80;99.90
13802;DHT22;6972;51.518;6.918;2023-01-29T11:44:46;1.90;99.90
13802;DHT22;6972;51.518;6.918;2023-01-29T11:49:38;1.90;99.90
13802;DHT22;6972;51.518;6.918;2023-01-29T11:52:08;2.00;99.90
13802;DHT22;6972;51.518;6.918;2023-01-29T11:54:39;2.10;99.90
13802;DHT22;6972;51.518;6.918;2023-01-29T11:57:36;2.00;99.90
13802;DHT22;6972;51.518;6.918;2023-01-29T12:00:16;2.30;99.90
13802;DHT22;6972;51.518;6.918;2023-01-29T12:02:48;2.10;99.90
13802;DHT22;6972;51.518;6.918;2023-01-29T12:05:17;2.10;99.90
13802;DHT22;6972;51.518;6.918;2023-01-29T12:07:47;2.10;99.90
13802;DHT22;6972;51.518;6.918;2023-01-29T12:10:36;2.10;99.90
13802;DHT22;6972;51.518;6.918;2023-01-29T12:15:45;1.90;99.90
13802;DHT22;6972;51.518;6.918;2023-01-29T12:19:13;2.10;99.90
13802;DHT22;6972;51.518;6.918;2023-01-29T12:21:45;2.20;99.90
13802;DHT22;6972;51.518;6.918;2023-01-29T12:32:26;2.30;99.90
13802;DHT22;6972;51.518;6.918;2023-01-29T12:40:37;2.40;99.90
13802;DHT22;6972;51.518;6.918;2023-01-29T12:43:12;2.40;99.90
13802;DHT22;6972;51.518;6.918;2023-01-29T12:45:41;2.40;99.90
13802;DHT22;6972;51.518;6.918;2023-01-29T12:48:11;2.40;99.90
13802;DHT22;6972;51.518;6.918;2023-01-29T12:50:38;2.50;99.90
13802;DHT22;6972;51.518;6.918;2023-01-29T12:55:40;2.50;99.90
13802;DHT22;6972;51.518;6.918;2023-01-29T12:58:38;2.40;99.90
13802;DHT22;6972;51.518;6.918;2023-01-29T13:01:27;2.50;99.90
13802;DHT22;6972;51.518;6.918;2023-01-29T13:04:16;2.50;99.90
13802;DHT22;6972;51.518;6.918;2023-01-29T13:06:55;2.50;99.90
13802;DHT22;6972;51.518;6.918;2023-01-29T13:09:26;2.40;99.90
13802;DHT22;6972;51.518;6.918;2023-01-29T13:11:55;2.40;99.90
13802;DHT22;6972;51.518;6.918;2023-01-29T13:14:28;2.50;99.90
13802;DHT22;6972;51.518;6.918;2023-01-29T13:19:52;2.20;99.90
13802;DHT22;6972;51.518;6.918;2023-01-29T13:22:23;2.30;99.90
13802;DHT22;6972;51.518;6.918;2023-01-29T13:24:50;2.30;99.90
13802;DHT22;6972;51.518;6.918;2023-01-29T13:27:26;2.30;99.90
13802;DHT22;6972;51.518;6.918;2023-01-29T13:29:54;2.40;99.90
13802;DHT22;6972;51.518;6.918;2023-01-29T13:32:31;2.30;99.90
13802;DHT22;6972;51.518;6.918;2023-01-29T13:35:12;2.40;99.90
13802;DHT22;6972;51.518;6.918;2023-01-29T13:37:47;2.40;99.90
13802;DHT22;6972;51.518;6.918;2023-01-29T13:40:25;2.30;99.90
13802;DHT22;6972;51.518;6.918;2023-01-29T13:42:52;2.30;99.90
13802;DHT22;6972;51.518;6.918;2023-01-29T13:45:33;2.20;99.90
13802;DHT22;6972;51.518;6.918;2023-01-29T13:48:30;2.30;99.90
13802;DHT22;6972;51.518;6.918;2023-01-29T13:51:02;2.30;99.90
13802;DHT22;6972;51.518;6.918;2023-01-29T13:53:35;2.20;99.90
13802;DHT22;6972;51.518;6.918;2023-01-29T13:59:00;2.20;99.90
13802;DHT22;6972;51.518;6.918;2023-01-29T14:04:31;2.20;99.90
13802;DHT22;6972;51.518;6.918;2023-01-29T14:06:58;2.20;99.90
13802;DHT22;6972;51.518;6.918;2023-01-29T14:12:39;2.20;99.90
13802;DHT22;6972;51.518;6.918;2023-01-29T14:15:22;2.30;99.90
13802;DHT22;6972;51.518;6.918;2023-01-29T14:18:03;2.30;99.90
13802;DHT22;6972;51.518;6.918;2023-01-29T14:20:49;2.30;99.90
13802;DHT22;6972;51.518;6.918;2023-01-29T14:26:25;2.30;99.90
13802;DHT22;6972;51.518;6.918;2023-01-29T14:34:13;2.20;99.90
13802;DHT22;6972;51.518;6.918;2023-01-29T14:36:41;2.20;99.90
13802;DHT22;6972;51.518;6.918;2023-01-29T14:39:33;2.20;99.90
13802;DHT22;6972;51.518;6.918;2023-01-29T14:42:02;2.10;99.90
13802;DHT22;6972;51.518;6.918;2023-01-29T14:53:19;2.20;99.90
13802;DHT22;6972;51.518;6.918;2023-01-29T14:55:55;2.10;99.90
13802;DHT22;6972;51.518;6.918;2023-01-29T14:58:27;2.20;99.90
13802;DHT22;6972;51.518;6.918;2023-01-29T15:00:56;2.20;99.90
13802;DHT22;6972;51.518;6.918;2023-01-29T15:06:03;2.00;99.90
13802;DHT22;6972;51.518;6.918;2023-01-29T15:11:08;2.30;99.90
13802;DHT22;6972;51.518;6.918;2023-01-29T15:19:22;2.20;99.90
13802;DHT22;6972;51.518;6.918;2023-01-29T15:22:24;2.40;99.90
13802;DHT22;6972;51.518;6.918;2023-01-29T15:25:06;2.60;99.90
13802;DHT22;6972;51.518;6.918;2023-01-29T15:27:40;2.10;99.90
13802;DHT22;6972;51.518;6.918;2023-01-29T15:30:11;2.40;99.90
13802;DHT22;6972;51.518;6.918;2023-01-29T15:32:39;2.30;99.90
13802;DHT22;6972;51.518;6.918;2023-01-29T15:35:12;2.40;99.90
13802;DHT22;6972;51.518;6.918;2023-01-29T15:37:41;2.40;99.90
13802;DHT22;6972;51.518;6.918;2023-01-29T15:40:14;2.40;99.90
13802;DHT22;6972;51.518;6.918;2023-01-29T15:42:43;2.40;99.90
13802;DHT22;6972;51.518;6.918;2023-01-29T15:45:31;2.40;99.90
13802;DHT22;6972;51.518;6.918;2023-01-29T15:48:04;2.40;99.90
13802;DHT22;6972;51.518;6.918;2023-01-29T15:50:33;2.40;99.90
13802;DHT22;6972;51.518;6.918;2023-01-29T15:53:02;2.30;99.90
13802;DHT22;6972;51.518;6.918;2023-01-29T15:55:30;2.40;99.90
13802;DHT22;6972;51.518;6.918;2023-01-29T15:57:58;2.40;99.90
13802;DHT22;6972;51.518;6.918;2023-01-29T16:00:26;2.40;99.90
13802;DHT22;6972;51.518;6.918;2023-01-29T16:05:22;2.50;99.90
13802;DHT22;6972;51.518;6.918;2023-01-29T16:07:50;2.50;99.90
13802;DHT22;6972;51.518;6.918;2023-01-29T16:10:23;2.50;99.90
13802;DHT22;6972;51.518;6.918;2023-01-29T16:12:50;2.50;99.90
13802;DHT22;6972;51.518;6.918;2023-01-29T16:15:35;2.50;99.90
13802;DHT22;6972;51.518;6.918;2023-01-29T16:18:04;2.60;99.90
13802;DHT22;6972;51.518;6.918;2023-01-29T16:20:45;2.50;99.90
13802;DHT22;6972;51.518;6.918;2023-01-29T16:23:21;2.50;99.90
13802;DHT22;6972;51.518;6.918;2023-01-29T16:25:48;2.50;99.90
13802;DHT22;6972;51.518;6.918;2023-01-29T16:28:14;2.50;99.90
13802;DHT22;6972;51.518;6.918;2023-01-29T16:33:11;2.50;99.90
13802;DHT22;6972;51.518;6.918;2023-01-29T16:43:44;2.50;99.90
13802;DHT22;6972;51.518;6.918;2023-01-29T16:51:28;2.50;99.90
13802;DHT22;6972;51.518;6.918;2023-01-29T16:54:11;2.50;99.90
13802;DHT22;6972;51.518;6.918;2023-01-29T16:56:38;2.50;99.90
13802;DHT22;6972;51.518;6.918;2023-01-29T16:59:05;2.60;99.90
13802;DHT22;6972;51.518;6.918;2023-01-29T17:01:33;2.60;99.90
13802;DHT22;6972;51.518;6.918;2023-01-29T17:04:16;2.50;99.90
13802;DHT22;6972;51.518;6.918;2023-01-29T17:06:46;2.80;99.90
13802;DHT22;6972;51.518;6.918;2023-01-29T17:09:26;2.60;99.90
13802;DHT22;6972;51.518;6.918;2023-01-29T17:11:55;2.60;99.90
13802;DHT22;6972;51.518;6.918;2023-01-29T17:14:22;2.70;99.90
13802;DHT22;6972;51.518;6.918;2023-01-29T17:16:52;2.60;99.90
13802;DHT22;6972;51.518;6.918;2023-01-29T17:21:45;2.60;99.90
13802;DHT22;6972;51.518;6.918;2023-01-29T17:29:02;2.60;99.90
13802;DHT22;6972;51.518;6.918;2023-01-29T17:33:54;3.00;99.90
13802;DHT22;6972;51.518;6.918;2023-01-29T17:41:26;2.70;99.90
13802;DHT22;6972;51.518;6.918;2023-01-29T17:48:46;2.70;99.90
13802;DHT22;6972;51.518;6.918;2023-01-29T17:51:15;2.70;99.90
13802;DHT22;6972;51.518;6.918;2023-01-29T17:53:42;2.90;99.90
13802;DHT22;6972;51.518;6.918;2023-01-29T17:56:17;3.00;99.90
13802;DHT22;6972;51.518;6.918;2023-01-29T18:03:35;2.80;99.90
13802;DHT22;6972;51.518;6.918;2023-01-29T18:08:32;2.80;99.90
13802;DHT22;6972;51.518;6.918;2023-01-29T18:10:58;2.70;99.90
13802;DHT22;6972;51.518;6.918;2023-01-29T18:13:24;2.70;99.90
13802;DHT22;6972;51.518;6.918;2023-01-29T18:15:50;2.70;99.90
13802;DHT22;6972;51.518;6.918;2023-01-29T18:18:21;2.80;99.90
13802;DHT22;6972;51.518;6.918;2023-01-29T18:20:47;2.80;99.90
13802;DHT22;6972;51.518;6.918;2023-01-29T18:23:14;2.70;99.90
13802;DHT22;6972;51.518;6.918;2023-01-29T18:28:13;2.60;99.90
13802;DHT22;6972;51.518;6.918;2023-01-29T18:33:06;2.70;99.90
13802;DHT22;6972;51.518;6.918;2023-01-29T18:37:57;2.70;99.90
13802;DHT22;6972;51.518;6.918;2023-01-29T18:40:23;2.70;99.90
13802;DHT22;6972;51.518;6.918;2023-01-29T18:47:42;2.60;99.90
13802;DHT22;6972;51.518;6.918;2023-01-29T18:50:10;2.80;99.90
13802;DHT22;6972;51.518;6.918;2023-01-29T18:55:01;2.70;99.90
13802;DHT22;6972;51.518;6.918;2023-01-29T18:57:27;2.90;99.90
13802;DHT22;6972;51.518;6.918;2023-01-29T19:07:13;2.90;99.90
13802;DHT22;6972;51.518;6.918;2023-01-29T19:12:05;2.80;99.90
13802;DHT22;6972;51.518;6.918;2023-01-29T19:14:31;2.80;99.90
13802;DHT22;6972;51.518;6.918;2023-01-29T19:21:53;2.80;99.90
13802;DHT22;6972;51.518;6.918;2023-01-29T19:24:19;2.80;99.90
13802;DHT22;6972;51.518;6.918;2023-01-29T19:29:11;2.80;99.90
13802;DHT22;6972;51.518;6.918;2023-01-29T19:31:37;2.80;99.90
13802;DHT22;6972;51.518;6.918;2023-01-29T19:41:22;2.80;99.90
13802;DHT22;6972;51.518;6.918;2023-01-29T19:43:48;2.80;99.90
13802;DHT22;6972;51.518;6.918;2023-01-29T19:46:14;2.60;99.90
13802;DHT22;6972;51.518;6.918;2023-01-29T19:48:40;2.80;99.90
13802;DHT22;6972;51.518;6.918;2023-01-29T19:51:08;2.70;99.90
13802;DHT22;6972;51.518;6.918;2023-01-29T19:53:35;2.80;99.90
13802;DHT22;6972;51.518;6.918;2023-01-29T19:58:28;2.80;99.90
13802;DHT22;6972;51.518;6.918;2023-01-29T20:00:58;2.80;99.90
13802;DHT22;6972;51.518;6.918;2023-01-29T20:03:24;5.80;99.90
13802;DHT22;6972;51.518;6.918;2023-01-29T20:05:50;2.90;99.90
13802;DHT22;6972;51.518;6.918;2023-01-29T20:08:16;2.90;99.90
13802;DHT22;6972;51.518;6.918;2023-01-29T20:10:46;3.00;99.90
13802;DHT22;6972;51.518;6.918;2023-01-29T20:13:14;2.90;99.90
13802;DHT22;6972;51.518;6.918;2023-01-29T20:15:44;2.90;99.90
13802;DHT22;6972;51.518;6.918;2023-01-29T20:18:11;2.90;99.90
13802;DHT22;6972;51.518;6.918;2023-01-29T20:20:45;2.90;99.90
13802;DHT22;6972;51.518;6.918;2023-01-29T20:23:13;3.00;99.90
13802;DHT22;6972;51.518;6.918;2023-01-29T20:25:39;2.80;99.90
13802;DHT22;6972;51.518;6.918;2023-01-29T20:28:08;2.90;99.90
13802;DHT22;6972;51.518;6.918;2023-01-29T20:33:02;2.90;99.90
13802;DHT22;6972;51.518;6.918;2023-01-29T20:35:29;2.90;99.90
13802;DHT22;6972;51.518;6.918;2023-01-29T20:37:55;2.90;99.90
13802;DHT22;6972;51.518;6.918;2023-01-29T20:40:21;2.80;99.90
13802;DHT22;6972;51.518;6.918;2023-01-29T20:45:13;2.80;99.90
13802;DHT22;6972;51.518;6.918;2023-01-29T20:47:40;2.80;99.90
13802;DHT22;6972;51.518;6.918;2023-01-29T20:50:10;2.80;99.90
13802;DHT22;6972;51.518;6.918;2023-01-29T20:52:37;3.00;99.90
13802;DHT22;6972;51.518;6.918;2023-01-29T20:55:05;2.90;99.90
13802;DHT22;6972;51.518;6.918;2023-01-29T21:07:15;2.90;99.90
13802;DHT22;6972;51.518;6.918;2023-01-29T21:09:41;2.80;99.90
13802;DHT22;6972;51.518;6.918;2023-01-29T21:12:07;2.90;99.90
13802;DHT22;6972;51.518;6.918;2023-01-29T21:14:33;2.90;99.90
13802;DHT22;6972;51.518;6.918;2023-01-29T21:17:00;2.90;99.90
13802;DHT22;6972;51.518;6.918;2023-01-29T21:26:45;3.00;99.90
13802;DHT22;6972;51.518;6.918;2023-01-29T21:29:11;3.00;99.90
13802;DHT22;6972;51.518;6.918;2023-01-29T21:31:37;3.00;99.90
13802;DHT22;6972;51.518;6.918;2023-01-29T21:34:03;3.00;99.90
13802;DHT22;6972;51.518;6.918;2023-01-29T21:36:33;3.00;99.90
13802;DHT22;6972;51.518;6.918;2023-01-29T21:38:59;3.00;99.90
13802;DHT22;6972;51.518;6.918;2023-01-29T21:44:11;3.20;99.90
13802;DHT22;6972;51.518;6.918;2023-01-29T21:46:37;3.10;99.90
13802;DHT22;6972;51.518;6.918;2023-01-29T21:49:03;3.20;99.90
13802;DHT22;6972;51.518;6.918;2023-01-29T21:51:29;3.10;99.90
13802;DHT22;6972;51.518;6.918;2023-01-29T21:53:55;3.00;99.90
13802;DHT22;6972;51.518;6.918;2023-01-29T21:56:20;3.20;99.90
13802;DHT22;6972;51.518;6.918;2023-01-29T21:58:49;3.10;99.90
13802;DHT22;6972;51.518;6.918;2023-01-29T22:03:41;3.20;99.90
13802;DHT22;6972;51.518;6.918;2023-01-29T22:11:08;3.20;99.90
13802;DHT22;6972;51.518;6.918;2023-01-29T22:20:54;3.20;99.90
13802;DHT22;6972;51.518;6.918;2023-01-29T22:23:21;3.20;99.90
13802;DHT22;6972;51.518;6.918;2023-01-29T22:25:47;3.20;99.90
13802;DHT22;6972;51.518;6.918;2023-01-29T22:28:16;3.30;99.90
13802;DHT22;6972;51.518;6.918;2023-01-29T22:30:43;4.40;99.90
13802;DHT22;6972;51.518;6.918;2023-01-29T22:35:36;3.30;99.90
13802;DHT22;6972;51.518;6.918;2023-01-29T22:47:46;3.40;99.90
13802;DHT22;6972;51.518;6.918;2023-01-29T22:55:10;3.40;99.90
13802;DHT22;6972;51.518;6.918;2023-01-29T22:57:36;3.40;99.90
13802;DHT22;6972;51.518;6.918;2023-01-29T23:00:08;3.50;99.90
13802;DHT22;6972;51.518;6.918;2023-01-29T23:02:35;3.50;99.90
13802;DHT22;6972;51.518;6.918;2023-01-29T23:09:54;3.40;99.90
13802;DHT22;6972;51.518;6.918;2023-01-29T23:14:50;3.50;99.90
13802;DHT22;6972;51.518;6.918;2023-01-29T23:17:15;3.50;99.90
13802;DHT22;6972;51.518;6.918;2023-01-29T23:19:42;3.40;99.90
13802;DHT22;6972;51.518;6.918;2023-01-29T23:29:42;3.40;99.90
13802;DHT22;6972;51.518;6.918;2023-01-29T23:34:34;3.40;99.90
13802;DHT22;6972;51.518;6.918;2023-01-29T23:46:45;3.20;99.90
13802;DHT22;6972;51.518;6.918;2023-01-29T23:58:56;3.60;99.90
